Time;durP1;ratioP1;P1;durP2;ratioP2;P2;SDS_P1;SDS_P2;PMS_P1;PMS_P2;Temp;Humidity;BMP_temperature;BMP_pressure;BME280_temperature;BME280_humidity;BME280_pressure;Samples;Min_cycle;Max_cycle;Signal;HPM_P1;HPM_P2
2023/10/30 00:00:10;;;;;;;6.65;3.70;;;17.20;97.00;;;;;;4909395;29;20520;-86
2023/10/30 00:02:39;;;;;;;6.88;3.72;;;17.20;97.10;;;;;;4912570;29;20056;-87
2023/10/30 00:05:09;;;;;;;6.57;3.88;;;17.20;97.00;;;;;;4915633;29;20074;-87
2023/10/30 00:07:35;;;;;;;7.70;4.18;;;17.20;97.00;;;;;;4912060;29;20127;-85
2023/10/30 00:10:00;;;;;;;5.68;3.70;;;17.20;97.00;;;;;;4901375;29;20119;-86
2023/10/30 00:12:26;;;;;;;5.43;3.92;;;17.30;97.00;;;;;;4910510;29;20038;-86
2023/10/30 00:14:53;;;;;;;7.15;4.82;;;17.30;97.00;;;;;;4909866;29;20746;-86
2023/10/30 00:17:18;;;;;;;6.40;3.72;;;17.30;97.00;;;;;;4906475;29;20051;-86
2023/10/30 00:19:44;;;;;;;6.05;3.70;;;17.30;96.90;;;;;;4909642;29;20040;-86
2023/10/30 00:22:11;;;;;;;5.05;3.60;;;17.30;96.90;;;;;;4915490;29;20068;-87
2023/10/30 00:24:38;;;;;;;5.72;3.20;;;17.30;96.90;;;;;;4915587;29;20028;-87
2023/10/30 00:27:04;;;;;;;5.10;3.63;;;17.30;96.90;;;;;;4903295;29;20115;-87
2023/10/30 00:29:30;;;;;;;7.75;3.92;;;17.30;96.80;;;;;;4911848;29;20028;-87
2023/10/30 00:31:55;;;;;;;5.70;3.10;;;17.30;96.80;;;;;;4912021;29;20068;-87
2023/10/30 00:34:21;;;;;;;4.03;3.45;;;17.30;97.00;;;;;;4913822;29;20103;-87
2023/10/30 00:36:47;;;;;;;4.75;2.95;;;17.30;96.70;;;;;;4910493;29;20100;-86
2023/10/30 00:39:12;;;;;;;6.88;3.30;;;17.30;96.70;;;;;;4900803;29;20087;-88
2023/10/30 00:41:38;;;;;;;4.93;3.55;;;17.30;96.80;;;;;;4906136;29;20453;-88
2023/10/30 00:44:04;;;;;;;5.90;3.38;;;17.30;96.70;;;;;;4913464;29;20441;-87
2023/10/30 00:46:29;;;;;;;9.85;4.45;;;17.30;96.70;;;;;;4909518;29;20036;-88
2023/10/30 00:48:55;;;;;;;5.22;3.50;;;17.20;96.70;;;;;;4914585;29;20032;-86
2023/10/30 00:51:21;;;;;;;4.25;3.08;;;17.20;96.70;;;;;;4912203;29;20076;-88
2023/10/30 00:53:47;;;;;;;6.15;3.58;;;17.20;96.70;;;;;;4912874;29;20032;-87
2023/10/30 00:56:12;;;;;;;4.97;3.20;;;17.20;96.70;;;;;;4913167;29;20032;-87
2023/10/30 00:58:38;;;;;;;5.55;3.28;;;17.20;96.70;;;;;;4891628;29;20082;-86
2023/10/30 01:01:04;;;;;;;4.72;2.90;;;17.20;96.70;;;;;;4905970;29;20028;-87
2023/10/30 01:03:29;;;;;;;7.50;3.63;;;17.20;96.70;;;;;;4912390;29;20036;-86
2023/10/30 01:05:59;;;;;;;5.53;3.83;;;17.20;96.70;;;;;;4913339;29;20040;-87
2023/10/30 01:08:28;;;;;;;3.92;3.42;;;17.20;96.70;;;;;;4915437;29;20115;-88
2023/10/30 01:10:56;;;;;;;5.57;3.72;;;17.20;96.90;;;;;;4901490;29;20389;-87
2023/10/30 01:13:23;;;;;;;4.78;2.92;;;17.20;96.70;;;;;;4912925;29;20441;-87
2023/10/30 01:15:55;;;;;;;5.38;3.28;;;17.10;96.70;;;;;;4910618;29;20104;-87
2023/10/30 01:18:21;;;;;;;5.78;2.90;;;17.10;96.80;;;;;;4909871;29;20107;-87
2023/10/30 01:20:47;;;;;;;6.72;4.03;;;17.00;96.90;;;;;;4910322;29;20465;-87
2023/10/30 01:23:16;;;;;;;8.65;3.90;;;17.00;97.00;;;;;;4903163;29;20085;-87
2023/10/30 01:25:42;;;;;;;6.38;3.90;;;16.90;97.00;;;;;;4909473;29;20044;-87
2023/10/30 01:28:08;;;;;;;5.50;4.38;;;16.90;97.10;;;;;;4899076;29;20036;-88
2023/10/30 01:30:33;;;;;;;6.13;4.03;;;16.90;97.20;;;;;;4896391;29;20042;-87
2023/10/30 01:32:59;;;;;;;3.88;3.30;;;16.80;97.30;;;;;;4911646;29;20032;-87
2023/10/30 01:35:25;;;;;;;8.43;3.70;;;16.80;97.40;;;;;;4914978;29;20032;-88
2023/10/30 01:37:51;;;;;;;8.10;3.20;;;16.80;97.60;;;;;;4914013;29;20056;-87
2023/10/30 01:40:17;;;;;;;4.13;3.20;;;16.80;97.40;;;;;;4904685;29;20116;-87
2023/10/30 01:42:42;;;;;;;5.25;3.35;;;16.90;97.60;;;;;;4911835;29;20111;-88
2023/10/30 01:45:08;;;;;;;3.55;3.03;;;16.90;97.40;;;;;;4914929;29;20091;-86
2023/10/30 01:47:34;;;;;;;4.47;3.10;;;16.90;97.40;;;;;;4912361;29;20111;-86
2023/10/30 01:50:01;;;;;;;5.07;3.35;;;16.90;97.40;;;;;;4894976;29;20115;-86
2023/10/30 01:52:29;;;;;;;4.30;2.97;;;16.90;97.40;;;;;;4897200;29;20153;-87
2023/10/30 01:54:56;;;;;;;6.00;3.47;;;16.80;97.40;;;;;;4917124;29;20047;-86
2023/10/30 01:57:23;;;;;;;6.47;3.08;;;16.90;97.40;;;;;;4917540;29;20096;-86
2023/10/30 01:59:50;;;;;;;6.35;3.08;;;16.90;97.40;;;;;;4915174;29;20044;-86
2023/10/30 02:02:19;;;;;;;4.82;3.17;;;16.90;97.40;;;;;;4907787;29;20063;-84
2023/10/30 02:04:44;;;;;;;4.03;3.00;;;17.00;97.30;;;;;;4918899;29;20159;-86
2023/10/30 02:07:11;;;;;;;6.20;3.40;;;17.00;97.30;;;;;;4914431;29;20111;-87
2023/10/30 02:09:37;;;;;;;5.07;3.42;;;17.00;97.10;;;;;;4905175;29;20036;-87
2023/10/30 02:12:03;;;;;;;5.30;3.25;;;17.00;97.20;;;;;;4904004;29;20044;-86
2023/10/30 02:14:29;;;;;;;9.48;3.90;;;17.00;97.20;;;;;;4915041;29;20025;-86
2023/10/30 02:16:55;;;;;;;5.10;3.60;;;17.00;97.30;;;;;;4905723;29;20466;-86
2023/10/30 02:19:26;;;;;;;6.53;3.63;;;16.90;97.20;;;;;;4905198;29;20032;-85
2023/10/30 02:21:53;;;;;;;5.15;3.47;;;16.90;97.20;;;;;;4913743;29;20039;-86
2023/10/30 02:24:19;;;;;;;6.78;3.20;;;16.90;97.20;;;;;;4916058;29;20024;-86
2023/10/30 02:26:49;;;;;;;4.07;3.13;;;16.90;97.30;;;;;;4913083;29;20048;-86
2023/10/30 02:29:16;;;;;;;4.57;2.88;;;17.00;97.30;;;;;;4907364;29;20024;-85
2023/10/30 02:31:42;;;;;;;4.32;3.03;;;17.00;97.20;;;;;;4897857;29;20508;-86
2023/10/30 02:34:08;;;;;;;6.75;3.05;;;17.00;97.20;;;;;;4911927;29;20024;-87
2023/10/30 02:36:34;;;;;;;4.53;3.10;;;17.00;97.20;;;;;;4908472;29;20016;-87
2023/10/30 02:39:02;;;;;;;5.95;3.40;;;17.00;97.20;;;;;;4911149;29;20052;-87
2023/10/30 02:41:31;;;;;;;4.32;2.88;;;17.10;97.20;;;;;;4901452;29;20059;-88
2023/10/30 02:43:57;;;;;;;5.28;3.33;;;17.10;97.10;;;;;;4916326;29;20042;-88
2023/10/30 02:46:23;;;;;;;4.07;2.92;;;17.10;97.10;;;;;;4913526;29;20032;-88
2023/10/30 02:48:50;;;;;;;3.08;2.67;;;17.10;97.10;;;;;;4917207;29;20032;-86
2023/10/30 02:51:18;;;;;;;5.25;2.83;;;17.10;97.10;;;;;;4914786;29;20074;-87
2023/10/30 02:53:44;;;;;;;4.10;2.92;;;17.20;97.10;;;;;;4897819;29;20385;-87
2023/10/30 02:56:10;;;;;;;4.53;3.33;;;17.20;97.00;;;;;;4917784;29;20036;-87
2023/10/30 02:58:36;;;;;;;3.88;2.60;;;17.20;97.00;;;;;;4912921;29;20059;-86
2023/10/30 03:01:02;;;;;;;7.13;3.13;;;17.10;97.00;;;;;;4913868;29;20434;-87
2023/10/30 03:03:29;;;;;;;4.82;3.25;;;17.20;97.10;;;;;;4913651;29;20071;-88
2023/10/30 03:05:55;;;;;;;5.55;3.35;;;17.20;97.10;;;;;;4914223;29;20028;-88
2023/10/30 03:08:20;;;;;;;4.10;3.15;;;17.20;97.10;;;;;;4913948;29;20100;-87
2023/10/30 03:10:49;;;;;;;3.90;2.83;;;17.10;97.10;;;;;;4907307;29;20115;-86
2023/10/30 03:13:15;;;;;;;3.75;2.50;;;17.20;97.10;;;;;;4916439;29;20035;-87
2023/10/30 03:15:46;;;;;;;4.28;2.80;;;17.20;97.20;;;;;;4903117;29;20087;-87
2023/10/30 03:18:13;;;;;;;4.60;3.20;;;17.20;97.30;;;;;;4916943;29;20141;-88
2023/10/30 03:20:38;;;;;;;3.95;2.70;;;17.20;97.30;;;;;;4915770;29;20059;-88
2023/10/30 03:23:04;;;;;;;4.50;2.67;;;17.20;97.30;;;;;;4915612;29;20068;-88
2023/10/30 03:25:30;;;;;;;8.68;3.10;;;17.20;97.30;;;;;;4914641;29;20115;-87
2023/10/30 03:27:56;;;;;;;4.38;2.45;;;17.20;97.40;;;;;;4912151;29;20087;-87
2023/10/30 03:30:22;;;;;;;3.58;2.58;;;17.20;97.40;;;;;;4916729;29;20111;-87
2023/10/30 03:32:47;;;;;;;4.65;2.92;;;17.20;97.40;;;;;;4917070;29;20064;-87
2023/10/30 03:35:13;;;;;;;4.80;2.78;;;17.20;97.40;;;;;;4900334;29;20103;-87
2023/10/30 03:37:39;;;;;;;3.72;2.53;;;17.10;97.40;;;;;;4916883;29;20043;-87
2023/10/30 03:40:05;;;;;;;3.92;2.15;;;17.20;97.70;;;;;;4917639;29;20377;-88
2023/10/30 03:42:30;;;;;;;3.25;2.78;;;17.20;97.40;;;;;;4916584;29;20035;-88
2023/10/30 03:44:57;;;;;;;4.65;2.33;;;17.10;97.40;;;;;;4900623;29;20040;-87
2023/10/30 03:47:22;;;;;;;4.38;2.20;;;17.20;97.40;;;;;;4917337;29;20036;-87
2023/10/30 03:49:48;;;;;;;5.30;2.20;;;17.20;97.40;;;;;;4900674;29;20091;-88
2023/10/30 03:52:14;;;;;;;2.30;1.90;;;17.20;97.40;;;;;;4914823;29;20032;-88
2023/10/30 03:54:39;;;;;;;3.13;2.47;;;17.20;97.40;;;;;;4911105;29;20034;-87
2023/10/30 03:57:08;;;;;;;4.30;2.50;;;17.20;97.40;;;;;;4916598;29;20035;-87
2023/10/30 03:59:34;;;;;;;4.13;2.75;;;17.20;97.40;;;;;;4916126;29;20119;-87
2023/10/30 04:02:00;;;;;;;4.20;2.78;;;17.20;97.40;;;;;;4903966;29;20103;-88
2023/10/30 04:04:25;;;;;;;4.32;2.67;;;17.30;97.50;;;;;;4915469;29;20056;-87
2023/10/30 04:06:51;;;;;;;4.47;2.45;;;17.30;97.40;;;;;;4914862;29;20465;-86
2023/10/30 04:09:17;;;;;;;4.10;2.20;;;17.30;97.40;;;;;;4902950;29;20029;-86
2023/10/30 04:11:46;;;;;;;5.28;2.95;;;17.30;97.40;;;;;;4914075;29;20024;-86
2023/10/30 04:14:12;;;;;;;3.75;2.40;;;17.30;97.50;;;;;;4916330;29;20024;-86
2023/10/30 04:16:37;;;;;;;4.97;2.80;;;17.40;97.60;;;;;;4904125;29;20349;-86
2023/10/30 04:19:03;;;;;;;5.30;2.80;;;17.30;97.60;;;;;;4905898;29;20468;-85
2023/10/30 04:21:29;;;;;;;5.43;2.97;;;17.30;97.70;;;;;;4894812;29;20043;-86
2023/10/30 04:23:55;;;;;;;4.20;2.70;;;17.30;97.80;;;;;;4901940;29;20037;-87
2023/10/30 04:26:21;;;;;;;4.72;3.05;;;17.30;97.80;;;;;;4910328;29;20041;-86
2023/10/30 04:28:46;;;;;;;6.53;3.42;;;17.30;97.90;;;;;;4914106;29;20025;-85
2023/10/30 04:31:12;;;;;;;5.13;2.90;;;17.30;97.90;;;;;;4914873;29;20031;-85
2023/10/30 04:33:38;;;;;;;5.22;2.78;;;17.30;97.90;;;;;;4912148;29;20029;-86
2023/10/30 04:36:04;;;;;;;4.35;2.92;;;17.20;97.80;;;;;;4907257;29;20033;-86
2023/10/30 04:38:33;;;;;;;5.18;2.63;;;17.20;97.90;;;;;;4919226;29;20513;-86
2023/10/30 04:41:04;;;;;;;2.97;2.50;;;17.20;97.90;;;;;;4921434;29;20095;-85
2023/10/30 04:43:34;;;;;;;3.90;2.28;;;17.20;97.90;;;;;;4918679;29;20032;-85
2023/10/30 04:46:00;;;;;;;3.38;2.33;;;17.20;98.00;;;;;;4921538;29;20032;-86
2023/10/30 04:48:26;;;;;;;4.22;2.78;;;17.10;98.00;;;;;;4920673;29;20044;-85
2023/10/30 04:50:52;;;;;;;3.80;2.40;;;17.10;98.10;;;;;;4920832;29;20107;-85
2023/10/30 04:53:17;;;;;;;4.10;2.80;;;17.10;98.10;;;;;;4910497;29;20029;-86
2023/10/30 04:55:43;;;;;;;4.45;2.45;;;17.00;98.10;;;;;;4911879;29;20047;-85
2023/10/30 04:58:09;;;;;;;5.40;2.67;;;17.10;98.20;;;;;;4917165;29;20051;-85
2023/10/30 05:00:35;;;;;;;4.50;2.53;;;17.10;98.20;;;;;;4905902;29;20040;-86
2023/10/30 05:03:01;;;;;;;6.30;2.63;;;17.10;98.20;;;;;;4915380;29;20132;-86
2023/10/30 05:05:27;;;;;;;3.13;2.22;;;17.20;98.20;;;;;;4904468;29;20481;-86
2023/10/30 05:07:52;;;;;;;5.25;2.17;;;17.10;98.20;;;;;;4908987;29;20032;-86
2023/10/30 05:10:18;;;;;;;5.38;2.22;;;17.10;98.20;;;;;;4914927;29;20048;-85
2023/10/30 05:12:44;;;;;;;3.78;2.50;;;17.20;98.30;;;;;;4907079;29;20501;-85
2023/10/30 05:15:09;;;;;;;4.47;2.13;;;17.20;98.20;;;;;;4912939;29;20024;-85
2023/10/30 05:17:38;;;;;;;9.43;2.20;;;17.20;98.20;;;;;;4907554;29;20111;-86
2023/10/30 05:20:05;;;;;;;3.17;1.90;;;17.20;98.20;;;;;;4914175;29;20036;-87
2023/10/30 05:22:32;;;;;;;3.42;2.30;;;17.20;98.10;;;;;;4913485;29;20042;-86
2023/10/30 05:24:58;;;;;;;2.50;1.95;;;17.20;98.20;;;;;;4913756;29;20051;-86
2023/10/30 05:27:25;;;;;;;3.38;2.08;;;17.20;98.10;;;;;;4911385;29;20040;-87
2023/10/30 05:29:51;;;;;;;4.35;2.20;;;17.20;98.10;;;;;;4916780;29;20372;-87
2023/10/30 05:32:17;;;;;;;3.85;1.95;;;17.10;98.10;;;;;;4917118;29;20028;-86
2023/10/30 05:34:42;;;;;;;3.40;2.08;;;17.20;98.20;;;;;;4919306;29;20059;-86
2023/10/30 05:37:09;;;;;;;3.65;1.85;;;17.20;98.20;;;;;;4912101;29;20499;-86
2023/10/30 05:39:35;;;;;;;4.28;2.10;;;17.20;98.20;;;;;;4917490;29;20066;-82
2023/10/30 05:42:02;;;;;;;3.03;2.10;;;17.20;98.20;;;;;;4914717;29;20040;-82
2023/10/30 05:44:30;;;;;;;3.20;2.20;;;17.20;98.20;;;;;;4907706;29;20028;-86
2023/10/30 05:46:57;;;;;;;2.60;1.70;;;17.20;98.20;;;;;;4891831;29;20079;-87
2023/10/30 05:49:22;;;;;;;5.55;2.30;;;17.20;98.30;;;;;;4915572;29;20025;-87
2023/10/30 05:51:48;;;;;;;2.72;1.80;;;17.20;98.30;;;;;;4914006;29;20040;-87
2023/10/30 05:54:14;;;;;;;3.13;1.92;;;17.30;98.30;;;;;;4918807;29;20107;-87
2023/10/30 05:56:40;;;;;;;6.72;2.45;;;17.20;98.30;;;;;;4919316;29;20039;-88
2023/10/30 05:59:05;;;;;;;4.32;1.85;;;17.20;98.20;;;;;;4914447;29;20036;-88
2023/10/30 06:01:31;;;;;;;5.00;2.20;;;17.20;98.20;;;;;;4918738;29;20106;-87
2023/10/30 06:04:02;;;;;;;4.35;1.90;;;17.20;98.30;;;;;;4918298;29;20025;-87
2023/10/30 06:06:28;;;;;;;4.78;1.73;;;17.10;98.30;;;;;;4915911;29;20032;-88
2023/10/30 06:08:54;;;;;;;3.20;1.92;;;17.20;98.40;;;;;;4915994;29;20024;-88
2023/10/30 06:11:20;;;;;;;5.28;2.17;;;17.20;98.40;;;;;;4918534;29;20038;-87
2023/10/30 06:13:46;;;;;;;4.72;1.63;;;17.20;98.30;;;;;;4918432;29;20059;-87
2023/10/30 06:16:18;;;;;;;10.05;2.72;;;17.10;98.60;;;;;;4910483;29;20418;-88
2023/10/30 06:18:44;;;;;;;3.80;1.98;;;17.10;98.80;;;;;;4916731;29;20354;-88
2023/10/30 06:21:14;;;;;;;3.55;1.70;;;17.00;98.90;;;;;;4919817;29;20056;-87
2023/10/30 06:23:40;;;;;;;6.50;2.42;;;17.00;99.10;;;;;;4914876;29;20045;-89
2023/10/30 06:26:13;;;;;;;5.43;2.20;;;17.10;99.20;;;;;;4915159;29;20693;-88
2023/10/30 06:28:40;;;;;;;2.88;1.65;;;17.10;99.30;;;;;;4918969;29;20035;-88
2023/10/30 06:31:16;;;;;;;4.45;1.73;;;17.20;99.30;;;;;;4919470;29;20544;-87
2023/10/30 06:33:42;;;;;;;2.63;1.63;;;17.10;99.30;;;;;;4901479;29;20115;-88
2023/10/30 06:36:08;;;;;;;5.28;2.10;;;17.10;99.40;;;;;;4901939;29;20032;-87
2023/10/30 06:38:34;;;;;;;4.68;1.80;;;17.20;99.40;;;;;;4913866;29;20048;-88
2023/10/30 06:41:00;;;;;;;3.50;1.60;;;17.20;99.40;;;;;;4913896;29;20090;-88
2023/10/30 06:43:26;;;;;;;4.22;1.83;;;17.20;99.50;;;;;;4911152;29;20392;-88
2023/10/30 06:46:04;;;;;;;4.80;1.95;;;17.20;99.50;;;;;;4917653;29;20115;-86
2023/10/30 06:48:30;;;;;;;3.67;1.80;;;17.30;99.40;;;;;;4919299;29;20059;-87
2023/10/30 06:50:56;;;;;;;2.92;1.60;;;17.30;99.50;;;;;;4916177;29;20095;-86
2023/10/30 06:53:23;;;;;;;4.60;1.88;;;17.30;99.50;;;;;;4918357;29;20469;-87
2023/10/30 06:55:50;;;;;;;3.47;1.95;;;17.30;99.60;;;;;;4902052;29;20126;-86
2023/10/30 06:58:16;;;;;;;8.13;2.45;;;17.30;99.70;;;;;;4937210;29;20062;-87
2023/10/30 07:00:42;;;;;;;4.13;1.80;;;17.40;99.60;;;;;;4918987;29;20036;-87
2023/10/30 07:03:08;;;;;;;4.43;1.98;;;17.40;99.60;;;;;;4910883;29;20484;-87
2023/10/30 07:05:34;;;;;;;2.72;1.75;;;17.40;99.60;;;;;;4917861;29;20020;-86
2023/10/30 07:08:00;;;;;;;2.88;1.70;;;17.50;99.60;;;;;;4916325;29;20036;-87
2023/10/30 07:10:25;;;;;;;5.45;1.67;;;17.50;99.60;;;;;;4917806;29;20037;-86
2023/10/30 07:12:51;;;;;;;3.38;1.70;;;17.50;99.60;;;;;;4915197;29;20087;-87
2023/10/30 07:15:17;;;;;;;2.97;1.75;;;17.60;99.60;;;;;;4910318;29;20020;-86
2023/10/30 07:17:42;;;;;;;8.05;1.70;;;17.60;99.50;;;;;;4909540;29;20067;-87
2023/10/30 07:20:08;;;;;;;4.15;1.98;;;17.50;99.40;;;;;;4915998;29;20496;-87
2023/10/30 07:22:34;;;;;;;3.05;1.38;;;17.60;99.50;;;;;;4916598;29;20028;-86
2023/10/30 07:25:00;;;;;;;3.80;1.48;;;17.60;99.50;;;;;;4920060;29;20412;-85
2023/10/30 07:27:26;;;;;;;3.17;1.30;;;17.60;99.50;;;;;;4921064;29;20033;-87
2023/10/30 07:29:52;;;;;;;3.03;1.83;;;17.60;99.50;;;;;;4925303;29;20051;-86
2023/10/30 07:32:18;;;;;;;7.50;1.65;;;17.60;99.60;;;;;;4895688;29;20362;-87
2023/10/30 07:34:44;;;;;;;2.45;1.50;;;17.70;99.70;;;;;;4914396;29;20016;-86
2023/10/30 07:37:10;;;;;;;3.40;1.50;;;17.70;99.70;;;;;;4894226;29;20032;-85
2023/10/30 07:39:36;;;;;;;2.90;1.48;;;17.70;99.70;;;;;;4913168;29;20051;-85
2023/10/30 07:42:02;;;;;;;6.55;2.03;;;17.80;99.70;;;;;;4916197;29;20405;-87
2023/10/30 07:44:28;;;;;;;2.40;1.77;;;17.80;99.70;;;;;;4914353;29;20024;-87
2023/10/30 07:46:54;;;;;;;3.17;1.90;;;17.90;99.80;;;;;;4891483;29;20056;-89
2023/10/30 07:49:19;;;;;;;5.32;2.22;;;18.00;99.80;;;;;;4904935;29;20052;-86
2023/10/30 07:51:46;;;;;;;8.68;2.42;;;18.00;99.80;;;;;;4909208;29;20032;-85
2023/10/30 07:54:11;;;;;;;2.15;1.80;;;18.00;99.80;;;;;;4885720;29;20112;-85
2023/10/30 07:56:38;;;;;;;4.72;2.13;;;18.00;99.80;;;;;;4914653;29;20115;-85
2023/10/30 07:59:07;;;;;;;5.63;2.20;;;18.00;99.80;;;;;;4899714;29;20025;-85
2023/10/30 08:01:34;;;;;;;5.13;2.22;;;18.10;99.80;;;;;;4909004;29;20024;-84
2023/10/30 08:03:59;;;;;;;7.75;2.17;;;18.20;99.90;;;;;;4903890;29;20028;-85
2023/10/30 08:06:26;;;;;;;5.38;2.47;;;18.20;99.80;;;;;;4917824;29;20373;-86
2023/10/30 08:08:52;;;;;;;5.03;2.15;;;18.30;99.80;;;;;;4917834;29;20047;-85
2023/10/30 08:11:19;;;;;;;5.50;2.33;;;18.30;99.80;;;;;;4901894;29;20108;-86
2023/10/30 08:13:45;;;;;;;6.28;2.15;;;18.30;99.80;;;;;;4883211;29;20520;-86
2023/10/30 08:16:11;;;;;;;5.10;1.77;;;18.40;99.90;;;;;;4924291;29;20032;-87
2023/10/30 08:18:39;;;;;;;3.20;1.88;;;18.40;99.90;;;;;;4896316;29;20183;-88
2023/10/30 08:21:07;;;;;;;6.57;1.92;;;18.50;99.90;;;;;;4921656;29;20034;-89
2023/10/30 08:23:34;;;;;;;4.63;1.65;;;18.50;99.90;;;;;;4921701;29;20116;-89
2023/10/30 08:26:01;;;;;;;3.45;1.52;;;18.50;99.90;;;;;;4913940;29;20488;-89
2023/10/30 08:28:26;;;;;;;5.05;1.90;;;18.60;99.90;;;;;;4909068;29;20052;-89
2023/10/30 08:30:52;;;;;;;4.60;2.38;;;18.70;99.90;;;;;;4904303;29;20083;-89
2023/10/30 08:33:18;;;;;;;5.95;2.35;;;18.70;99.90;;;;;;4918431;29;20040;-90
2023/10/30 08:35:46;;;;;;;9.63;2.20;;;18.80;99.90;;;;;;4893716;29;20504;-89
2023/10/30 08:38:12;;;;;;;4.40;1.88;;;18.80;99.90;;;;;;4912861;29;20115;-88
2023/10/30 08:40:38;;;;;;;4.10;1.30;;;18.80;99.90;;;;;;4913596;29;20350;-89
2023/10/30 08:43:03;;;;;;;5.72;1.85;;;18.80;99.90;;;;;;4923552;29;20043;-89
2023/10/30 08:45:29;;;;;;;3.05;1.70;;;18.70;99.90;;;;;;4928481;29;20104;-89
2023/10/30 08:47:55;;;;;;;4.10;2.10;;;18.80;99.90;;;;;;4918468;29;20546;-89
2023/10/30 08:50:21;;;;;;;3.97;1.70;;;18.80;99.90;;;;;;4917204;29;20028;-89
2023/10/30 08:52:46;;;;;;;6.28;1.95;;;18.80;99.90;;;;;;4917681;29;20032;-89
2023/10/30 08:55:12;;;;;;;4.38;1.70;;;18.80;99.90;;;;;;4911458;29;20500;-89
2023/10/30 08:57:38;;;;;;;3.25;1.60;;;18.80;99.90;;;;;;4908182;29;20047;-89
2023/10/30 09:00:07;;;;;;;2.88;1.75;;;18.80;99.90;;;;;;4910824;29;20032;-89
2023/10/30 09:02:35;;;;;;;2.88;1.70;;;18.80;99.90;;;;;;4917724;29;20036;-89
2023/10/30 09:05:02;;;;;;;4.60;1.50;;;18.80;99.90;;;;;;4914647;29;20032;-89
2023/10/30 09:07:29;;;;;;;4.32;1.75;;;18.80;99.90;;;;;;4914676;29;20440;-88
2023/10/30 09:09:55;;;;;;;6.88;1.90;;;18.80;99.90;;;;;;4898862;29;20020;-88
2023/10/30 09:12:21;;;;;;;6.70;2.30;;;18.80;99.90;;;;;;4898998;29;20501;-88
2023/10/30 09:14:47;;;;;;;10.65;3.22;;;18.80;99.90;;;;;;4917072;29;20499;-87
2023/10/30 09:17:12;;;;;;;11.60;3.30;;;18.80;99.90;;;;;;4915502;29;20028;-87
2023/10/30 09:19:38;;;;;;;7.13;2.63;;;18.70;99.90;;;;;;4915493;29;20020;-87
2023/10/30 09:22:04;;;;;;;8.10;2.67;;;18.70;99.90;;;;;;4915280;29;20039;-88
2023/10/30 09:24:31;;;;;;;5.78;1.95;;;18.70;99.90;;;;;;4914481;29;20028;-88
2023/10/30 09:26:57;;;;;;;6.90;2.05;;;18.70;99.90;;;;;;4916210;29;20032;-87
2023/10/30 09:29:24;;;;;;;7.00;1.77;;;18.70;99.90;;;;;;4915156;29;20434;-87
2023/10/30 09:31:50;;;;;;;5.25;1.92;;;18.70;99.90;;;;;;4915623;29;20123;-88
2023/10/30 09:34:16;;;;;;;9.60;2.30;;;18.70;99.90;;;;;;4915823;29;20473;-88
2023/10/30 09:36:42;;;;;;;3.50;1.92;;;18.70;99.90;;;;;;4906414;29;20024;-88
2023/10/30 09:39:08;;;;;;;5.72;2.08;;;18.70;99.90;;;;;;4911980;29;20386;-88
2023/10/30 09:41:41;;;;;;;7.07;2.17;;;18.70;99.90;;;;;;4915853;29;20024;-89
2023/10/30 09:44:09;;;;;;;7.72;2.70;;;18.70;99.90;;;;;;4915774;29;20461;-89
2023/10/30 09:46:37;;;;;;;3.63;1.60;;;18.70;99.90;;;;;;4908045;29;20303;-86
2023/10/30 09:49:04;;;;;;;4.93;2.03;;;18.70;99.90;;;;;;4915489;29;20041;-86
2023/10/30 09:51:30;;;;;;;6.55;2.00;;;18.70;99.90;;;;;;4912361;29;20035;-85
2023/10/30 09:53:58;;;;;;;3.13;1.90;;;18.70;99.90;;;;;;4897275;29;20520;-85
2023/10/30 09:56:26;;;;;;;3.63;1.98;;;18.70;99.90;;;;;;4901556;29;20044;-86
2023/10/30 09:58:52;;;;;;;7.13;1.65;;;18.70;99.90;;;;;;4911363;29;20032;-84
2023/10/30 10:01:19;;;;;;;5.57;1.67;;;18.60;99.90;;;;;;4900610;29;20036;-85
2023/10/30 10:03:45;;;;;;;5.05;2.17;;;18.70;99.90;;;;;;4880913;29;20043;-83
2023/10/30 10:06:11;;;;;;;6.13;2.00;;;18.60;99.90;;;;;;4897452;29;20100;-84
2023/10/30 10:08:38;;;;;;;5.78;2.50;;;18.70;99.90;;;;;;4904433;29;20063;-83
2023/10/30 10:11:05;;;;;;;5.88;2.33;;;18.70;99.90;;;;;;4911270;29;20060;-84
2023/10/30 10:13:37;;;;;;;5.47;2.47;;;18.70;99.90;;;;;;4915780;29;20473;-84
2023/10/30 10:16:04;;;;;;;3.17;1.80;;;18.70;99.90;;;;;;4917346;29;20021;-84
2023/10/30 10:18:35;;;;;;;3.50;1.85;;;18.70;99.90;;;;;;4918909;29;20056;-84
2023/10/30 10:21:08;;;;;;;7.75;3.17;;;18.70;99.90;;;;;;4919327;29;20484;-84
2023/10/30 10:23:36;;;;;;;4.85;2.03;;;18.70;99.90;;;;;;4919344;29;20535;-84
2023/10/30 10:26:13;;;;;;;11.07;3.58;;;18.70;99.90;;;;;;4902916;29;20029;-83
2023/10/30 10:28:39;;;;;;;4.43;2.15;;;18.60;99.90;;;;;;4907621;29;20024;-87
2023/10/30 10:31:05;;;;;;;6.80;3.08;;;18.60;99.90;;;;;;4915770;29;20036;-84
2023/10/30 10:33:33;;;;;;;5.10;2.00;;;18.50;99.90;;;;;;4918358;29;20025;-84
2023/10/30 10:36:04;;;;;;;5.85;2.13;;;18.50;99.90;;;;;;4904698;29;20020;-83
2023/10/30 10:38:31;;;;;;;4.63;1.70;;;18.50;99.90;;;;;;4909664;29;20055;-83
2023/10/30 10:40:57;;;;;;;1.27;0.88;;;18.40;99.90;;;;;;4915953;29;20040;-83
2023/10/30 10:43:28;;;;;;;2.30;0.85;;;18.40;99.90;;;;;;4915946;29;20400;-83
2023/10/30 10:45:56;;;;;;;1.25;1.10;;;18.40;99.90;;;;;;4916704;29;20088;-83
2023/10/30 10:48:24;;;;;;;2.30;0.80;;;18.40;99.90;;;;;;4925280;29;20032;-83
2023/10/30 10:50:50;;;;;;;8.13;3.38;;;18.30;99.90;;;;;;4911321;29;20050;-83
2023/10/30 10:53:19;;;;;;;3.25;1.67;;;18.30;99.90;;;;;;4915485;29;20480;-83
2023/10/30 10:55:47;;;;;;;5.85;1.52;;;18.30;99.90;;;;;;4897958;29;20469;-83
2023/10/30 10:58:19;;;;;;;5.90;1.75;;;18.30;99.90;;;;;;4901466;29;20472;-84
2023/10/30 11:00:49;;;;;;;2.00;1.05;;;18.30;99.90;;;;;;4912808;29;20055;-84
2023/10/30 11:03:15;;;;;;;3.13;1.33;;;18.30;99.90;;;;;;4906253;29;20044;-84
2023/10/30 11:05:43;;;;;;;3.72;1.02;;;18.30;99.90;;;;;;4896716;29;20105;-84
2023/10/30 11:08:19;;;;;;;5.07;1.60;;;18.40;99.90;;;;;;4904549;29;20035;-83
2023/10/30 11:10:53;;;;;;;3.30;1.13;;;18.40;99.90;;;;;;4883647;29;20447;-84
2023/10/30 11:13:58;;;;;;;2.45;1.50;;;18.50;99.90;;;;;;4900556;29;20032;-83
2023/10/30 11:16:28;;;;;;;4.10;1.40;;;18.60;99.90;;;;;;4896504;29;20139;-83
2023/10/30 11:18:57;;;;;;;;;;;18.70;99.90;;;;;;4903711;29;20033;-83
2023/10/30 11:21:25;;;;;;;4.35;1.55;;;18.80;99.90;;;;;;4895721;29;19911;-84
2023/10/30 11:23:59;;;;;;;4.80;1.77;;;18.80;99.90;;;;;;4898894;29;20028;-84
2023/10/30 11:26:36;;;;;;;3.08;1.58;;;18.90;99.90;;;;;;4897478;29;20017;-85
2023/10/30 11:29:06;;;;;;;4.50;1.63;;;19.00;99.90;;;;;;4908777;29;20106;-83
2023/10/30 11:31:50;;;;;;;4.05;1.92;;;19.00;99.90;;;;;;4917589;29;20051;-84
2023/10/30 11:34:16;;;;;;;3.72;1.90;;;19.10;99.90;;;;;;4891137;29;20036;-84
2023/10/30 11:36:45;;;;;;;4.35;1.88;;;19.10;99.90;;;;;;4910837;29;20051;-84
2023/10/30 11:39:11;;;;;;;4.53;1.97;;;19.10;99.90;;;;;;4877532;29;1197338;-84
2023/10/30 11:41:40;;;;;;;3.63;1.98;;;19.10;99.90;;;;;;4906858;29;20043;-83
2023/10/30 11:44:13;;;;;;;2.42;1.45;;;19.20;99.90;;;;;;4904101;29;20024;-83
2023/10/30 11:46:41;;;;;;;4.60;2.20;;;19.20;99.90;;;;;;4917393;29;20067;-83
2023/10/30 11:49:19;;;;;;;5.53;2.13;;;19.10;99.90;;;;;;4904384;29;20035;-83
2023/10/30 11:51:46;;;;;;;3.78;1.77;;;19.20;99.90;;;;;;4915426;29;20066;-84
2023/10/30 11:54:18;;;;;;;2.53;1.38;;;19.10;99.90;;;;;;4916451;29;20024;-85
2023/10/30 11:56:48;;;;;;;3.17;1.88;;;19.10;99.90;;;;;;4916069;29;20024;-83
2023/10/30 11:59:15;;;;;;;3.05;2.15;;;19.10;99.90;;;;;;4914462;29;20429;-83
2023/10/30 12:01:43;;;;;;;5.75;1.70;;;19.10;99.90;;;;;;4919984;29;20147;-84
2023/10/30 12:04:09;;;;;;;7.10;1.90;;;19.10;99.90;;;;;;4936308;29;20027;-84
2023/10/30 12:06:35;;;;;;;5.00;1.50;;;19.10;99.90;;;;;;4910574;29;20055;-84
2023/10/30 12:09:01;;;;;;;3.72;1.98;;;19.10;99.90;;;;;;4914262;29;20404;-84
2023/10/30 12:11:27;;;;;;;5.38;1.50;;;19.10;99.90;;;;;;4899064;29;20034;-84
2023/10/30 12:13:54;;;;;;;3.45;1.63;;;19.10;99.90;;;;;;4900782;29;20033;-84
2023/10/30 12:16:20;;;;;;;3.05;1.30;;;19.10;99.90;;;;;;4899154;29;20028;-83
2023/10/30 12:18:46;;;;;;;3.45;1.73;;;19.10;99.90;;;;;;4912406;29;20091;-85
2023/10/30 12:21:12;;;;;;;3.20;1.73;;;19.10;99.90;;;;;;4917082;29;20024;-82
2023/10/30 12:23:49;;;;;;;3.65;1.75;;;19.10;99.90;;;;;;4925720;29;20060;-83
2023/10/30 12:26:15;;;;;;;4.05;2.00;;;19.10;99.90;;;;;;4919857;29;20024;-84
2023/10/30 12:28:43;;;;;;;4.43;1.60;;;19.10;99.90;;;;;;4916593;29;20034;-84
2023/10/30 12:31:23;;;;;;;2.97;1.40;;;19.00;99.90;;;;;;4928875;29;20563;-84
2023/10/30 12:34:06;;;;;;;4.75;1.95;;;19.00;99.90;;;;;;4918753;29;20050;-84
2023/10/30 12:36:32;;;;;;;5.50;1.70;;;19.10;99.90;;;;;;4916680;29;20122;-84
2023/10/30 12:39:17;;;;;;;3.22;1.50;;;19.00;99.90;;;;;;4912522;29;20052;-84
2023/10/30 12:41:47;;;;;;;3.30;1.67;;;19.00;99.90;;;;;;4896017;29;20037;-84
2023/10/30 12:44:19;;;;;;;4.63;1.30;;;19.00;99.90;;;;;;4903812;29;20031;-84
2023/10/30 12:46:46;;;;;;;2.35;1.30;;;19.00;99.90;;;;;;4924273;29;20040;-84